Main page
METAR-TAF:

METAR-TAF

Airports :

Tehran, Iran

Mehrabad International Airport

latitude: 35-41N, longitude: 051-21E, elevation: 1204 m

Current weather observation

The report was made 34 minutes ago, at 20:30 UTC
Wind 4 kt from the Northwest
Temperature 4°C
Humidity 60%
Pressure 1016 hPa
Visibility 10 km or more
no clouds below 1500 m and no cumulonimbus

METAR: OIII 202030Z 32004KT CAVOK 04/M03 Q1016 A3001 NOSIG

Time: 00:34 (21:04 UTC)

Forecast

The report was made 3 hours and 34 minutes ago, at 17:30 UTC
Forecast valid from 20 at 18 UTC to 21 at 24 UTC
Wind 6 kt from the South
Visibility: 8000 m
Few clouds at a height of 3500 ft
Scattered clouds at a height of 10000 ft
Temporary
from 21 at 18 UTC to 21 at 24 UTC
Wind 16 kt from the West

TAF: OIII 201730Z 2018/2124 17003MPS 8000 FEW035 SCT100 TEMPO 2118/2124 26008MPS

Weather observations and forecasts of more than 4000 airports (METAR and TAF reports).

The available stations are represented by yellow and red dots on the map.

Hover mouse over dot to see the name of the station.

Then click to see weather observations and forecasts.

To change the map : click on the green buttons with a black cross to zoom in, on the green button with a dash to zoom out, or on the green arrows for adjacent maps.


METAR-TAF: